ESMK/KID METAR and TAF weather

Enter ICAO airport designator
Station Type Date Time Source
ESMK METAR 2021/01/22 06:50 UTC NOAA

ESMK 220650Z AUTO 18017KT 9999 OVC046/// 07/05 Q0980 REDZ


Station Type Date Time Source
ESMK Decoded METAR 2021/01/22 06:50 UTC NOAA

Kristianstad / Everod, Sweden (ESMK) 55-55N 014-05E
Jan 22, 2021 - 01:50 AM EST / 2021.01.22 0650 UTC
Wind: from the S (180 degrees) at 20 MPH (17 KT):0
Visibility: greater than 7 mile(s):0
Sky conditions: overcast
Temperature: 44 F (7 C)
Dew Point: 41 F (5 C)
Relative Humidity: 87%
Pressure (altimeter): 28.94 in. Hg (0980 hPa)
ob: ESMK 220650Z AUTO 18017KT 9999 OVC046/// 07/05 Q0980 REDZ
cycle: 7

Station Type Date Time Source
ESMK TAF 2020/07/19 09:57 UTC NOAA

TAF TAF ESMK 190930Z 1909/1921 13008KT CAVOK PROB40 1910/1919 SCT030TCU

Example: see airport list